sensor_id;sensor_type;location;lat;lon;timestamp;P1;durP1;ratioP1;P2;durP2;ratioP2
41623;SDS011;27319;50.306;18.926;2022-08-30T00:00:40;15.10;;;7.68;;
41623;SDS011;27319;50.306;18.926;2022-08-30T00:04:41;14.63;;;8.90;;
41623;SDS011;27319;50.306;18.926;2022-08-30T00:08:42;15.52;;;7.78;;
41623;SDS011;27319;50.306;18.926;2022-08-30T00:12:42;18.85;;;8.82;;
41623;SDS011;27319;50.306;18.926;2022-08-30T00:16:43;19.02;;;9.20;;
41623;SDS011;27319;50.306;18.926;2022-08-30T00:20:44;21.60;;;8.98;;
41623;SDS011;27319;50.306;18.926;2022-08-30T00:24:44;16.85;;;9.13;;
41623;SDS011;27319;50.306;18.926;2022-08-30T00:28:45;13.10;;;8.00;;
41623;SDS011;27319;50.306;18.926;2022-08-30T00:32:46;18.80;;;9.20;;
41623;SDS011;27319;50.306;18.926;2022-08-30T00:36:46;20.40;;;9.82;;
41623;SDS011;27319;50.306;18.926;2022-08-30T00:40:47;17.00;;;8.95;;
41623;SDS011;27319;50.306;18.926;2022-08-30T00:44:48;14.43;;;7.70;;
41623;SDS011;27319;50.306;18.926;2022-08-30T00:48:31;14.00;;;7.95;;
41623;SDS011;27319;50.306;18.926;2022-08-30T00:52:32;13.15;;;8.00;;
41623;SDS011;27319;50.306;18.926;2022-08-30T00:56:32;15.68;;;8.10;;
41623;SDS011;27319;50.306;18.926;2022-08-30T01:00:33;14.05;;;7.53;;
41623;SDS011;27319;50.306;18.926;2022-08-30T01:04:33;15.23;;;8.30;;
41623;SDS011;27319;50.306;18.926;2022-08-30T01:08:34;13.15;;;7.75;;
41623;SDS011;27319;50.306;18.926;2022-08-30T01:11:35;16.13;;;8.43;;
41623;SDS011;27319;50.306;18.926;2022-08-30T01:14:37;15.25;;;7.97;;
41623;SDS011;27319;50.306;18.926;2022-08-30T01:17:39;15.02;;;8.80;;
41623;SDS011;27319;50.306;18.926;2022-08-30T01:20:48;18.38;;;7.93;;
41623;SDS011;27319;50.306;18.926;2022-08-30T01:23:59;16.80;;;7.70;;
41623;SDS011;27319;50.306;18.926;2022-08-30T01:27:02;16.20;;;8.50;;
41623;SDS011;27319;50.306;18.926;2022-08-30T01:30:04;15.75;;;8.55;;
41623;SDS011;27319;50.306;18.926;2022-08-30T01:33:06;19.38;;;8.98;;
41623;SDS011;27319;50.306;18.926;2022-08-30T01:36:09;14.50;;;7.43;;
41623;SDS011;27319;50.306;18.926;2022-08-30T01:40:08;12.38;;;7.60;;
41623;SDS011;27319;50.306;18.926;2022-08-30T01:43:11;16.52;;;8.10;;
41623;SDS011;27319;50.306;18.926;2022-08-30T01:47:11;15.02;;;7.20;;
41623;SDS011;27319;50.306;18.926;2022-08-30T01:51:12;11.40;;;7.40;;
41623;SDS011;27319;50.306;18.926;2022-08-30T01:55:12;16.33;;;7.60;;
41623;SDS011;27319;50.306;18.926;2022-08-30T01:59:12;14.80;;;7.97;;
41623;SDS011;27319;50.306;18.926;2022-08-30T02:03:13;14.80;;;7.40;;
41623;SDS011;27319;50.306;18.926;2022-08-30T02:07:13;13.73;;;7.85;;
41623;SDS011;27319;50.306;18.926;2022-08-30T02:11:14;13.90;;;8.05;;
41623;SDS011;27319;50.306;18.926;2022-08-30T02:15:15;13.00;;;8.30;;
41623;SDS011;27319;50.306;18.926;2022-08-30T02:18:16;13.48;;;7.28;;
41623;SDS011;27319;50.306;18.926;2022-08-30T02:21:17;14.32;;;7.90;;
41623;SDS011;27319;50.306;18.926;2022-08-30T02:24:19;16.77;;;8.27;;
41623;SDS011;27319;50.306;18.926;2022-08-30T02:27:19;13.00;;;7.68;;
41623;SDS011;27319;50.306;18.926;2022-08-30T02:30:22;16.15;;;7.55;;
41623;SDS011;27319;50.306;18.926;2022-08-30T02:33:23;15.07;;;8.80;;
41623;SDS011;27319;50.306;18.926;2022-08-30T02:37:23;14.20;;;8.15;;
41623;SDS011;27319;50.306;18.926;2022-08-30T02:41:24;11.45;;;7.70;;
41623;SDS011;27319;50.306;18.926;2022-08-30T02:45:25;13.60;;;7.13;;
41623;SDS011;27319;50.306;18.926;2022-08-30T02:48:26;14.68;;;7.70;;
41623;SDS011;27319;50.306;18.926;2022-08-30T02:52:27;13.88;;;8.02;;
41623;SDS011;27319;50.306;18.926;2022-08-30T02:56:27;12.98;;;8.30;;
41623;SDS011;27319;50.306;18.926;2022-08-30T03:00:28;11.77;;;7.30;;
41623;SDS011;27319;50.306;18.926;2022-08-30T03:04:28;12.27;;;7.13;;
41623;SDS011;27319;50.306;18.926;2022-08-30T03:08:29;14.65;;;7.53;;
41623;SDS011;27319;50.306;18.926;2022-08-30T03:12:29;14.00;;;7.53;;
41623;SDS011;27319;50.306;18.926;2022-08-30T03:16:30;12.23;;;7.63;;
41623;SDS011;27319;50.306;18.926;2022-08-30T03:20:31;12.35;;;8.02;;
41623;SDS011;27319;50.306;18.926;2022-08-30T03:24:32;15.88;;;8.48;;
41623;SDS011;27319;50.306;18.926;2022-08-30T03:28:32;15.63;;;9.07;;
41623;SDS011;27319;50.306;18.926;2022-08-30T03:32:33;16.25;;;8.15;;
41623;SDS011;27319;50.306;18.926;2022-08-30T03:36:33;12.25;;;8.20;;
41623;SDS011;27319;50.306;18.926;2022-08-30T03:40:34;10.63;;;7.53;;
41623;SDS011;27319;50.306;18.926;2022-08-30T03:44:34;14.23;;;7.30;;
41623;SDS011;27319;50.306;18.926;2022-08-30T03:48:02;12.77;;;8.45;;
41623;SDS011;27319;50.306;18.926;2022-08-30T03:51:03;14.75;;;9.15;;
41623;SDS011;27319;50.306;18.926;2022-08-30T03:54:04;12.25;;;7.63;;
41623;SDS011;27319;50.306;18.926;2022-08-30T03:58:04;15.55;;;8.65;;
41623;SDS011;27319;50.306;18.926;2022-08-30T04:02:05;16.13;;;9.27;;
41623;SDS011;27319;50.306;18.926;2022-08-30T04:06:05;15.30;;;8.20;;
41623;SDS011;27319;50.306;18.926;2022-08-30T04:10:07;12.70;;;8.05;;
41623;SDS011;27319;50.306;18.926;2022-08-30T04:14:07;13.27;;;8.57;;
41623;SDS011;27319;50.306;18.926;2022-08-30T04:18:07;13.85;;;6.85;;
41623;SDS011;27319;50.306;18.926;2022-08-30T04:22:08;13.82;;;7.13;;
41623;SDS011;27319;50.306;18.926;2022-08-30T04:26:09;12.07;;;7.80;;
41623;SDS011;27319;50.306;18.926;2022-08-30T04:30:09;15.73;;;7.72;;
41623;SDS011;27319;50.306;18.926;2022-08-30T04:34:11;11.43;;;7.85;;
41623;SDS011;27319;50.306;18.926;2022-08-30T04:38:14;16.10;;;8.23;;
41623;SDS011;27319;50.306;18.926;2022-08-30T04:42:11;15.15;;;8.20;;
41623;SDS011;27319;50.306;18.926;2022-08-30T04:46:12;14.32;;;8.70;;
41623;SDS011;27319;50.306;18.926;2022-08-30T04:50:16;14.20;;;9.35;;
41623;SDS011;27319;50.306;18.926;2022-08-30T04:54:13;22.15;;;9.93;;
41623;SDS011;27319;50.306;18.926;2022-08-30T04:58:14;18.02;;;8.70;;
41623;SDS011;27319;50.306;18.926;2022-08-30T05:02:14;18.63;;;9.13;;
41623;SDS011;27319;50.306;18.926;2022-08-30T05:06:15;19.13;;;9.25;;
41623;SDS011;27319;50.306;18.926;2022-08-30T05:10:16;14.48;;;9.90;;
41623;SDS011;27319;50.306;18.926;2022-08-30T05:14:16;23.90;;;11.82;;
41623;SDS011;27319;50.306;18.926;2022-08-30T05:18:17;26.27;;;13.02;;
41623;SDS011;27319;50.306;18.926;2022-08-30T05:22:18;16.88;;;11.48;;
41623;SDS011;27319;50.306;18.926;2022-08-30T05:26:19;23.35;;;11.70;;
41623;SDS011;27319;50.306;18.926;2022-08-30T05:30:19;25.23;;;12.63;;
41623;SDS011;27319;50.306;18.926;2022-08-30T05:34:19;27.83;;;13.25;;
41623;SDS011;27319;50.306;18.926;2022-08-30T05:38:20;20.50;;;11.45;;
41623;SDS011;27319;50.306;18.926;2022-08-30T05:42:20;22.67;;;13.60;;
41623;SDS011;27319;50.306;18.926;2022-08-30T05:46:21;25.02;;;12.02;;
41623;SDS011;27319;50.306;18.926;2022-08-30T05:50:22;30.75;;;14.93;;
41623;SDS011;27319;50.306;18.926;2022-08-30T05:54:22;26.30;;;14.57;;
41623;SDS011;27319;50.306;18.926;2022-08-30T05:58:23;23.42;;;12.77;;
41623;SDS011;27319;50.306;18.926;2022-08-30T06:02:24;33.97;;;13.57;;
41623;SDS011;27319;50.306;18.926;2022-08-30T06:06:24;25.33;;;13.20;;
41623;SDS011;27319;50.306;18.926;2022-08-30T06:10:25;20.90;;;10.75;;
41623;SDS011;27319;50.306;18.926;2022-08-30T06:13:26;22.67;;;11.27;;
41623;SDS011;27319;50.306;18.926;2022-08-30T06:16:27;18.33;;;10.70;;
41623;SDS011;27319;50.306;18.926;2022-08-30T06:19:29;21.42;;;10.95;;
41623;SDS011;27319;50.306;18.926;2022-08-30T06:22:29;15.88;;;10.73;;
41623;SDS011;27319;50.306;18.926;2022-08-30T06:25:30;16.02;;;11.32;;
41623;SDS011;27319;50.306;18.926;2022-08-30T06:28:31;16.58;;;10.90;;
41623;SDS011;27319;50.306;18.926;2022-08-30T06:31:32;18.33;;;11.63;;
41623;SDS011;27319;50.306;18.926;2022-08-30T06:34:34;17.95;;;11.02;;
41623;SDS011;27319;50.306;18.926;2022-08-30T06:37:34;24.35;;;14.93;;
41623;SDS011;27319;50.306;18.926;2022-08-30T06:40:36;25.60;;;17.95;;
41623;SDS011;27319;50.306;18.926;2022-08-30T06:44:36;28.02;;;19.92;;
41623;SDS011;27319;50.306;18.926;2022-08-30T06:48:37;23.67;;;16.67;;
41623;SDS011;27319;50.306;18.926;2022-08-30T06:52:38;26.58;;;15.07;;
41623;SDS011;27319;50.306;18.926;2022-08-30T06:56:39;21.92;;;11.63;;
41623;SDS011;27319;50.306;18.926;2022-08-30T07:00:39;20.17;;;10.55;;
41623;SDS011;27319;50.306;18.926;2022-08-30T07:04:39;21.15;;;12.15;;
41623;SDS011;27319;50.306;18.926;2022-08-30T07:08:40;25.00;;;13.10;;
41623;SDS011;27319;50.306;18.926;2022-08-30T07:12:40;21.88;;;12.82;;
41623;SDS011;27319;50.306;18.926;2022-08-30T07:16:30;23.48;;;12.55;;
41623;SDS011;27319;50.306;18.926;2022-08-30T07:19:31;20.23;;;12.15;;
41623;SDS011;27319;50.306;18.926;2022-08-30T07:22:33;21.00;;;12.35;;
41623;SDS011;27319;50.306;18.926;2022-08-30T07:25:37;19.83;;;12.05;;
41623;SDS011;27319;50.306;18.926;2022-08-30T07:28:41;20.48;;;13.40;;
41623;SDS011;27319;50.306;18.926;2022-08-30T07:32:40;23.63;;;12.95;;
41623;SDS011;27319;50.306;18.926;2022-08-30T07:36:41;20.83;;;12.55;;
41623;SDS011;27319;50.306;18.926;2022-08-30T07:40:42;19.75;;;12.40;;
41623;SDS011;27319;50.306;18.926;2022-08-30T07:44:42;20.65;;;9.25;;
41623;SDS011;27319;50.306;18.926;2022-08-30T07:48:43;20.65;;;9.93;;
41623;SDS011;27319;50.306;18.926;2022-08-30T07:52:43;20.10;;;9.75;;
41623;SDS011;27319;50.306;18.926;2022-08-30T07:56:44;16.10;;;9.95;;
41623;SDS011;27319;50.306;18.926;2022-08-30T08:00:44;14.43;;;8.05;;
41623;SDS011;27319;50.306;18.926;2022-08-30T08:04:45;12.50;;;7.10;;
41623;SDS011;27319;50.306;18.926;2022-08-30T08:08:42;12.48;;;6.13;;
41623;SDS011;27319;50.306;18.926;2022-08-30T08:11:44;19.73;;;8.05;;
41623;SDS011;27319;50.306;18.926;2022-08-30T08:14:45;10.77;;;7.07;;
41623;SDS011;27319;50.306;18.926;2022-08-30T08:17:46;16.33;;;7.18;;
41623;SDS011;27319;50.306;18.926;2022-08-30T08:20:50;12.38;;;6.18;;
41623;SDS011;27319;50.306;18.926;2022-08-30T08:23:51;15.52;;;7.07;;
41623;SDS011;27319;50.306;18.926;2022-08-30T08:26:52;15.73;;;7.22;;
41623;SDS011;27319;50.306;18.926;2022-08-30T08:29:53;17.48;;;8.32;;
41623;SDS011;27319;50.306;18.926;2022-08-30T08:32:54;10.52;;;5.90;;
41623;SDS011;27319;50.306;18.926;2022-08-30T08:35:56;7.55;;;4.60;;
41623;SDS011;27319;50.306;18.926;2022-08-30T08:38:57;5.60;;;4.03;;
41623;SDS011;27319;50.306;18.926;2022-08-30T08:42:14;6.72;;;3.97;;
41623;SDS011;27319;50.306;18.926;2022-08-30T08:45:52;14.05;;;7.18;;
41623;SDS011;27319;50.306;18.926;2022-08-30T08:49:12;13.82;;;7.35;;
41623;SDS011;27319;50.306;18.926;2022-08-30T08:52:18;14.30;;;7.28;;
41623;SDS011;27319;50.306;18.926;2022-08-30T08:55:45;9.27;;;6.30;;
41623;SDS011;27319;50.306;18.926;2022-08-30T08:58:50;8.55;;;5.57;;
41623;SDS011;27319;50.306;18.926;2022-08-30T09:02:57;9.93;;;6.47;;
41623;SDS011;27319;50.306;18.926;2022-08-30T09:06:57;14.45;;;7.22;;
41623;SDS011;27319;50.306;18.926;2022-08-30T09:11:00;9.43;;;6.00;;
41623;SDS011;27319;50.306;18.926;2022-08-30T09:15:14;9.77;;;5.13;;
41623;SDS011;27319;50.306;18.926;2022-08-30T09:19:01;7.57;;;4.93;;
41623;SDS011;27319;50.306;18.926;2022-08-30T09:26:37;10.10;;;5.18;;
41623;SDS011;27319;50.306;18.926;2022-08-30T09:30:38;11.02;;;6.03;;
41623;SDS011;27319;50.306;18.926;2022-08-30T09:34:21;7.30;;;5.05;;
41623;SDS011;27319;50.306;18.926;2022-08-30T09:38:29;8.63;;;5.38;;
41623;SDS011;27319;50.306;18.926;2022-08-30T09:42:28;7.95;;;5.20;;
41623;SDS011;27319;50.306;18.926;2022-08-30T09:46:22;10.52;;;7.10;;
41623;SDS011;27319;50.306;18.926;2022-08-30T09:50:24;12.60;;;8.40;;
41623;SDS011;27319;50.306;18.926;2022-08-30T09:54:25;10.13;;;7.60;;
41623;SDS011;27319;50.306;18.926;2022-08-30T10:05:43;7.60;;;4.45;;
41623;SDS011;27319;50.306;18.926;2022-08-30T10:10:19;6.60;;;5.78;;
41623;SDS011;27319;50.306;18.926;2022-08-30T10:21:32;6.30;;;3.47;;
41623;SDS011;27319;50.306;18.926;2022-08-30T10:28:42;6.68;;;2.47;;
41623;SDS011;27319;50.306;18.926;2022-08-30T10:36:46;3.33;;;2.78;;
41623;SDS011;27319;50.306;18.926;2022-08-30T10:40:49;3.70;;;2.90;;
41623;SDS011;27319;50.306;18.926;2022-08-30T10:44:36;6.25;;;3.33;;
41623;SDS011;27319;50.306;18.926;2022-08-30T10:48:36;4.43;;;2.85;;
41623;SDS011;27319;50.306;18.926;2022-08-30T10:52:40;13.35;;;5.25;;
41623;SDS011;27319;50.306;18.926;2022-08-30T10:56:39;8.77;;;4.13;;
41623;SDS011;27319;50.306;18.926;2022-08-30T11:16:04;5.78;;;2.40;;
41623;SDS011;27319;50.306;18.926;2022-08-30T11:19:18;4.22;;;2.95;;
41623;SDS011;27319;50.306;18.926;2022-08-30T11:22:39;7.28;;;2.55;;
41623;SDS011;27319;50.306;18.926;2022-08-30T11:36:10;5.10;;;2.97;;
41623;SDS011;27319;50.306;18.926;2022-08-30T11:43:53;3.40;;;2.58;;
41623;SDS011;27319;50.306;18.926;2022-08-30T11:46:52;5.30;;;3.35;;
41623;SDS011;27319;50.306;18.926;2022-08-30T11:55:20;6.68;;;3.83;;
41623;SDS011;27319;50.306;18.926;2022-08-30T11:58:24;8.18;;;5.60;;
41623;SDS011;27319;50.306;18.926;2022-08-30T12:06:08;3.45;;;2.92;;
41623;SDS011;27319;50.306;18.926;2022-08-30T12:09:12;4.45;;;3.30;;
41623;SDS011;27319;50.306;18.926;2022-08-30T12:18:58;4.70;;;2.70;;
41623;SDS011;27319;50.306;18.926;2022-08-30T12:22:13;6.07;;;2.55;;
41623;SDS011;27319;50.306;18.926;2022-08-30T12:25:20;4.05;;;1.85;;
41623;SDS011;27319;50.306;18.926;2022-08-30T12:28:25;5.18;;;2.08;;
41623;SDS011;27319;50.306;18.926;2022-08-30T12:31:26;3.28;;;2.10;;
41623;SDS011;27319;50.306;18.926;2022-08-30T12:34:28;3.83;;;1.90;;
41623;SDS011;27319;50.306;18.926;2022-08-30T12:37:37;3.33;;;1.42;;
41623;SDS011;27319;50.306;18.926;2022-08-30T12:41:39;2.47;;;1.80;;
41623;SDS011;27319;50.306;18.926;2022-08-30T12:45:40;2.38;;;1.70;;
41623;SDS011;27319;50.306;18.926;2022-08-30T12:49:35;3.38;;;1.70;;
41623;SDS011;27319;50.306;18.926;2022-08-30T12:53:37;2.75;;;1.77;;
41623;SDS011;27319;50.306;18.926;2022-08-30T12:58:02;2.50;;;1.48;;
41623;SDS011;27319;50.306;18.926;2022-08-30T13:01:53;1.70;;;1.50;;
41623;SDS011;27319;50.306;18.926;2022-08-30T13:05:54;2.97;;;2.08;;
41623;SDS011;27319;50.306;18.926;2022-08-30T13:09:59;4.65;;;2.00;;
41623;SDS011;27319;50.306;18.926;2022-08-30T13:17:40;2.78;;;2.08;;
41623;SDS011;27319;50.306;18.926;2022-08-30T13:21:34;2.40;;;2.10;;
41623;SDS011;27319;50.306;18.926;2022-08-30T13:24:35;3.08;;;2.17;;
41623;SDS011;27319;50.306;18.926;2022-08-30T13:27:36;2.28;;;1.98;;
41623;SDS011;27319;50.306;18.926;2022-08-30T13:30:38;4.45;;;1.88;;
41623;SDS011;27319;50.306;18.926;2022-08-30T13:33:39;2.92;;;2.03;;
41623;SDS011;27319;50.306;18.926;2022-08-30T13:36:58;6.97;;;2.20;;
41623;SDS011;27319;50.306;18.926;2022-08-30T13:39:59;1.98;;;1.75;;
41623;SDS011;27319;50.306;18.926;2022-08-30T13:43:00;5.72;;;1.85;;
41623;SDS011;27319;50.306;18.926;2022-08-30T13:46:01;3.30;;;1.90;;
41623;SDS011;27319;50.306;18.926;2022-08-30T13:49:03;3.25;;;1.90;;
41623;SDS011;27319;50.306;18.926;2022-08-30T13:53:02;4.20;;;2.30;;
41623;SDS011;27319;50.306;18.926;2022-08-30T13:57:03;5.68;;;2.30;;
41623;SDS011;27319;50.306;18.926;2022-08-30T14:01:03;4.68;;;2.53;;
41623;SDS011;27319;50.306;18.926;2022-08-30T14:05:04;3.65;;;2.40;;
41623;SDS011;27319;50.306;18.926;2022-08-30T14:09:05;2.75;;;2.38;;
41623;SDS011;27319;50.306;18.926;2022-08-30T14:13:05;2.67;;;1.98;;
41623;SDS011;27319;50.306;18.926;2022-08-30T14:17:06;3.40;;;2.10;;
41623;SDS011;27319;50.306;18.926;2022-08-30T14:21:07;2.92;;;1.90;;
41623;SDS011;27319;50.306;18.926;2022-08-30T14:25:07;3.05;;;1.70;;
41623;SDS011;27319;50.306;18.926;2022-08-30T14:29:09;4.68;;;1.98;;
41623;SDS011;27319;50.306;18.926;2022-08-30T14:33:09;5.10;;;3.05;;
41623;SDS011;27319;50.306;18.926;2022-08-30T14:37:10;3.35;;;2.10;;
41623;SDS011;27319;50.306;18.926;2022-08-30T14:41:10;2.17;;;1.55;;
41623;SDS011;27319;50.306;18.926;2022-08-30T14:44:12;2.35;;;1.30;;
41623;SDS011;27319;50.306;18.926;2022-08-30T14:47:13;4.45;;;1.80;;
41623;SDS011;27319;50.306;18.926;2022-08-30T14:50:14;2.33;;;1.55;;
41623;SDS011;27319;50.306;18.926;2022-08-30T14:53:15;1.92;;;1.75;;
41623;SDS011;27319;50.306;18.926;2022-08-30T14:56:17;1.45;;;1.17;;
41623;SDS011;27319;50.306;18.926;2022-08-30T14:59:19;3.53;;;1.60;;
41623;SDS011;27319;50.306;18.926;2022-08-30T15:02:20;2.10;;;1.90;;
41623;SDS011;27319;50.306;18.926;2022-08-30T15:05:21;5.07;;;2.03;;
41623;SDS011;27319;50.306;18.926;2022-08-30T15:08:22;2.28;;;1.70;;
41623;SDS011;27319;50.306;18.926;2022-08-30T15:37:00;3.75;;;2.40;;
41623;SDS011;27319;50.306;18.926;2022-08-30T15:40:02;3.75;;;2.45;;
41623;SDS011;27319;50.306;18.926;2022-08-30T15:43:04;1.90;;;1.55;;
41623;SDS011;27319;50.306;18.926;2022-08-30T15:46:22;5.47;;;2.17;;
41623;SDS011;27319;50.306;18.926;2022-08-30T15:50:21;2.20;;;1.75;;
41623;SDS011;27319;50.306;18.926;2022-08-30T15:54:22;2.95;;;2.03;;
41623;SDS011;27319;50.306;18.926;2022-08-30T15:58:22;3.85;;;2.60;;
41623;SDS011;27319;50.306;18.926;2022-08-30T16:02:22;2.72;;;2.28;;
41623;SDS011;27319;50.306;18.926;2022-08-30T16:06:24;9.38;;;6.60;;
41623;SDS011;27319;50.306;18.926;2022-08-30T16:10:24;5.25;;;4.45;;
41623;SDS011;27319;50.306;18.926;2022-08-30T16:14:24;13.35;;;2.90;;
41623;SDS011;27319;50.306;18.926;2022-08-30T16:18:25;3.15;;;2.42;;
41623;SDS011;27319;50.306;18.926;2022-08-30T16:22:25;6.07;;;4.35;;
41623;SDS011;27319;50.306;18.926;2022-08-30T16:26:27;10.85;;;8.13;;
41623;SDS011;27319;50.306;18.926;2022-08-30T16:30:27;9.65;;;6.68;;
41623;SDS011;27319;50.306;18.926;2022-08-30T16:34:28;8.02;;;5.70;;
41623;SDS011;27319;50.306;18.926;2022-08-30T16:38:28;13.10;;;8.05;;
41623;SDS011;27319;50.306;18.926;2022-08-30T16:42:29;13.05;;;8.77;;
41623;SDS011;27319;50.306;18.926;2022-08-30T16:46:29;11.07;;;7.22;;
41623;SDS011;27319;50.306;18.926;2022-08-30T16:50:30;13.95;;;7.88;;
41623;SDS011;27319;50.306;18.926;2022-08-30T16:54:30;9.27;;;6.63;;
41623;SDS011;27319;50.306;18.926;2022-08-30T16:58:31;7.85;;;4.43;;
41623;SDS011;27319;50.306;18.926;2022-08-30T17:02:31;6.82;;;4.40;;
41623;SDS011;27319;50.306;18.926;2022-08-30T17:06:32;4.22;;;3.60;;
41623;SDS011;27319;50.306;18.926;2022-08-30T17:10:32;6.80;;;3.38;;
41623;SDS011;27319;50.306;18.926;2022-08-30T17:14:33;4.25;;;3.33;;
41623;SDS011;27319;50.306;18.926;2022-08-30T17:18:34;4.45;;;3.30;;
41623;SDS011;27319;50.306;18.926;2022-08-30T17:22:34;5.43;;;3.33;;
41623;SDS011;27319;50.306;18.926;2022-08-30T17:26:35;6.28;;;3.50;;
41623;SDS011;27319;50.306;18.926;2022-08-30T17:30:38;4.72;;;3.53;;
41623;SDS011;27319;50.306;18.926;2022-08-30T17:34:38;4.53;;;3.00;;
41623;SDS011;27319;50.306;18.926;2022-08-30T17:38:39;5.03;;;3.08;;
41623;SDS011;27319;50.306;18.926;2022-08-30T17:42:40;5.05;;;3.33;;
41623;SDS011;27319;50.306;18.926;2022-08-30T17:46:41;4.30;;;3.28;;
41623;SDS011;27319;50.306;18.926;2022-08-30T17:50:41;4.53;;;3.13;;
41623;SDS011;27319;50.306;18.926;2022-08-30T17:54:42;4.95;;;3.38;;
41623;SDS011;27319;50.306;18.926;2022-08-30T17:58:42;5.00;;;3.22;;
41623;SDS011;27319;50.306;18.926;2022-08-30T18:02:43;6.35;;;3.40;;
41623;SDS011;27319;50.306;18.926;2022-08-30T18:05:44;4.18;;;3.38;;
41623;SDS011;27319;50.306;18.926;2022-08-30T18:08:45;4.63;;;3.58;;
41623;SDS011;27319;50.306;18.926;2022-08-30T18:11:46;6.40;;;3.50;;
41623;SDS011;27319;50.306;18.926;2022-08-30T18:14:47;5.70;;;4.15;;
41623;SDS011;27319;50.306;18.926;2022-08-30T18:17:49;4.57;;;3.55;;
41623;SDS011;27319;50.306;18.926;2022-08-30T18:20:50;10.43;;;7.35;;
41623;SDS011;27319;50.306;18.926;2022-08-30T18:23:51;15.40;;;12.27;;
41623;SDS011;27319;50.306;18.926;2022-08-30T18:26:52;16.65;;;14.65;;
41623;SDS011;27319;50.306;18.926;2022-08-30T18:29:55;10.27;;;9.27;;
41623;SDS011;27319;50.306;18.926;2022-08-30T18:32:56;7.72;;;5.93;;
41623;SDS011;27319;50.306;18.926;2022-08-30T18:35:57;4.75;;;4.10;;
41623;SDS011;27319;50.306;18.926;2022-08-30T18:38:58;5.82;;;4.40;;
41623;SDS011;27319;50.306;18.926;2022-08-30T18:42:00;5.80;;;4.30;;
41623;SDS011;27319;50.306;18.926;2022-08-30T18:45:02;4.63;;;3.85;;
41623;SDS011;27319;50.306;18.926;2022-08-30T18:48:04;6.30;;;3.90;;
41623;SDS011;27319;50.306;18.926;2022-08-30T18:51:08;6.82;;;4.18;;
41623;SDS011;27319;50.306;18.926;2022-08-30T18:54:11;4.82;;;4.05;;
41623;SDS011;27319;50.306;18.926;2022-08-30T18:57:12;8.05;;;4.43;;
41623;SDS011;27319;50.306;18.926;2022-08-30T19:00:13;5.75;;;4.32;;
41623;SDS011;27319;50.306;18.926;2022-08-30T19:04:14;5.75;;;4.47;;
41623;SDS011;27319;50.306;18.926;2022-08-30T19:07:17;6.18;;;4.13;;
41623;SDS011;27319;50.306;18.926;2022-08-30T19:10:21;5.57;;;4.13;;
41623;SDS011;27319;50.306;18.926;2022-08-30T19:13:24;8.27;;;4.63;;
41623;SDS011;27319;50.306;18.926;2022-08-30T19:16:25;8.93;;;4.22;;
41623;SDS011;27319;50.306;18.926;2022-08-30T19:19:26;6.32;;;4.28;;
41623;SDS011;27319;50.306;18.926;2022-08-30T19:22:26;5.43;;;4.40;;
41623;SDS011;27319;50.306;18.926;2022-08-30T19:25:28;6.50;;;4.85;;
41623;SDS011;27319;50.306;18.926;2022-08-30T19:28:29;6.90;;;4.60;;
41623;SDS011;27319;50.306;18.926;2022-08-30T19:32:29;5.80;;;4.68;;
41623;SDS011;27319;50.306;18.926;2022-08-30T19:36:30;5.45;;;4.78;;
41623;SDS011;27319;50.306;18.926;2022-08-30T19:40:30;6.43;;;5.50;;
41623;SDS011;27319;50.306;18.926;2022-08-30T19:44:31;6.93;;;5.10;;
41623;SDS011;27319;50.306;18.926;2022-08-30T19:48:32;10.20;;;5.60;;
41623;SDS011;27319;50.306;18.926;2022-08-30T19:52:32;13.90;;;5.07;;
41623;SDS011;27319;50.306;18.926;2022-08-30T19:56:33;6.75;;;4.68;;
41623;SDS011;27319;50.306;18.926;2022-08-30T20:00:33;6.40;;;5.40;;
41623;SDS011;27319;50.306;18.926;2022-08-30T20:04:34;6.72;;;5.07;;
41623;SDS011;27319;50.306;18.926;2022-08-30T20:08:35;8.52;;;5.05;;
41623;SDS011;27319;50.306;18.926;2022-08-30T20:12:36;8.50;;;5.20;;
41623;SDS011;27319;50.306;18.926;2022-08-30T20:16:36;8.77;;;5.25;;
41623;SDS011;27319;50.306;18.926;2022-08-30T20:20:37;9.32;;;5.40;;
41623;SDS011;27319;50.306;18.926;2022-08-30T20:24:37;10.70;;;5.15;;
41623;SDS011;27319;50.306;18.926;2022-08-30T20:28:38;6.55;;;5.05;;
41623;SDS011;27319;50.306;18.926;2022-08-30T20:32:39;7.45;;;5.03;;
41623;SDS011;27319;50.306;18.926;2022-08-30T20:36:39;7.38;;;5.20;;
41623;SDS011;27319;50.306;18.926;2022-08-30T20:40:40;6.88;;;4.63;;
41623;SDS011;27319;50.306;18.926;2022-08-30T20:44:40;7.18;;;5.18;;
41623;SDS011;27319;50.306;18.926;2022-08-30T20:48:41;6.53;;;4.70;;
41623;SDS011;27319;50.306;18.926;2022-08-30T20:52:42;5.18;;;4.13;;
41623;SDS011;27319;50.306;18.926;2022-08-30T20:55:44;5.75;;;4.78;;
41623;SDS011;27319;50.306;18.926;2022-08-30T20:58:46;6.28;;;4.43;;
41623;SDS011;27319;50.306;18.926;2022-08-30T21:01:48;8.02;;;4.57;;
41623;SDS011;27319;50.306;18.926;2022-08-30T21:04:49;6.90;;;4.72;;
41623;SDS011;27319;50.306;18.926;2022-08-30T21:07:50;5.72;;;4.35;;
41623;SDS011;27319;50.306;18.926;2022-08-30T21:10:52;6.97;;;4.70;;
41623;SDS011;27319;50.306;18.926;2022-08-30T21:14:52;7.22;;;4.72;;
41623;SDS011;27319;50.306;18.926;2022-08-30T21:18:53;7.13;;;4.55;;
41623;SDS011;27319;50.306;18.926;2022-08-30T21:22:54;6.60;;;4.63;;
41623;SDS011;27319;50.306;18.926;2022-08-30T21:26:54;6.85;;;5.07;;
41623;SDS011;27319;50.306;18.926;2022-08-30T21:31:02;8.63;;;4.57;;
41623;SDS011;27319;50.306;18.926;2022-08-30T21:35:01;6.38;;;4.28;;
41623;SDS011;27319;50.306;18.926;2022-08-30T21:39:01;6.63;;;4.57;;
41623;SDS011;27319;50.306;18.926;2022-08-30T21:42:03;8.15;;;4.85;;
41623;SDS011;27319;50.306;18.926;2022-08-30T21:45:05;7.57;;;4.35;;
41623;SDS011;27319;50.306;18.926;2022-08-30T21:48:07;7.03;;;4.45;;
41623;SDS011;27319;50.306;18.926;2022-08-30T21:51:09;5.10;;;4.25;;
41623;SDS011;27319;50.306;18.926;2022-08-30T21:54:11;7.60;;;5.40;;
41623;SDS011;27319;50.306;18.926;2022-08-30T21:57:14;6.35;;;4.90;;
41623;SDS011;27319;50.306;18.926;2022-08-30T22:00:16;9.35;;;6.53;;
41623;SDS011;27319;50.306;18.926;2022-08-30T22:03:20;9.10;;;7.63;;
41623;SDS011;27319;50.306;18.926;2022-08-30T22:06:21;10.20;;;7.68;;
41623;SDS011;27319;50.306;18.926;2022-08-30T22:09:23;11.02;;;7.53;;
41623;SDS011;27319;50.306;18.926;2022-08-30T22:12:24;7.85;;;6.80;;
41623;SDS011;27319;50.306;18.926;2022-08-30T22:15:26;10.50;;;7.47;;
41623;SDS011;27319;50.306;18.926;2022-08-30T22:18:27;9.65;;;6.60;;
41623;SDS011;27319;50.306;18.926;2022-08-30T22:21:29;10.50;;;7.65;;
41623;SDS011;27319;50.306;18.926;2022-08-30T22:24:31;10.02;;;7.40;;
41623;SDS011;27319;50.306;18.926;2022-08-30T22:27:32;11.85;;;7.18;;
41623;SDS011;27319;50.306;18.926;2022-08-30T22:30:33;9.65;;;7.10;;
41623;SDS011;27319;50.306;18.926;2022-08-30T22:33:34;10.25;;;7.05;;
41623;SDS011;27319;50.306;18.926;2022-08-30T22:36:36;10.10;;;6.75;;
41623;SDS011;27319;50.306;18.926;2022-08-30T22:39:38;8.93;;;6.30;;
41623;SDS011;27319;50.306;18.926;2022-08-30T22:42:38;8.23;;;5.47;;
41623;SDS011;27319;50.306;18.926;2022-08-30T22:45:39;9.13;;;5.20;;
41623;SDS011;27319;50.306;18.926;2022-08-30T22:48:41;8.02;;;4.85;;
41623;SDS011;27319;50.306;18.926;2022-08-30T22:51:44;6.88;;;4.97;;
41623;SDS011;27319;50.306;18.926;2022-08-30T22:54:45;12.82;;;6.38;;